Time;durP1;ratioP1;P1;durP2;ratioP2;P2;SDS_P1;SDS_P2;PMS_P1;PMS_P2;Temp;Humidity;BMP_temperature;BMP_pressure;BME280_temperature;BME280_humidity;BME280_pressure;Samples;Min_cycle;Max_cycle;Signal;HPM_P1;HPM_P2
2022/03/25 00:01:31;;;;;;;;;21.00;19.00;;;;;22.88;50.96;102411.25;5093996;27;46521;-59
2022/03/25 00:03:57;;;;;;;;;18.00;16.67;;;;;22.89;50.92;102410.34;5094381;27;45622;-59
2022/03/25 00:06:23;;;;;;;;;20.00;15.00;;;;;22.88;50.91;102413.06;5096393;27;45362;-61
2022/03/25 00:08:48;;;;;;;;;21.67;17.00;;;;;22.89;51.09;102417.53;5097353;27;45561;-60
2022/03/25 00:11:14;;;;;;;;;21.00;19.33;;;;;22.89;50.91;102417.53;5090832;27;45469;-59
2022/03/25 00:13:40;;;;;;;;;19.67;18.67;;;;;22.88;50.92;102405.88;5094135;27;45429;-59
2022/03/25 00:16:06;;;;;;;;;18.00;16.33;;;;;22.87;51.37;102420.22;5097141;27;49095;-59
2022/03/25 00:18:32;;;;;;;;;17.33;17.33;;;;;22.86;50.97;102413.06;5073900;27;45192;-59
2022/03/25 00:20:57;;;;;;;;;21.67;16.67;;;;;22.86;50.62;102417.56;5075149;27;46583;-59
2022/03/25 00:23:23;;;;;;;;;18.33;17.33;;;;;22.85;50.89;102411.28;5096285;27;45220;-59
2022/03/25 00:25:48;;;;;;;;;18.33;16.67;;;;;22.85;50.93;102419.38;5096698;27;51479;-59
2022/03/25 00:28:14;;;;;;;;;19.33;17.00;;;;;22.84;51.08;102420.25;5097023;27;45498;-61
2022/03/25 00:30:39;;;;;;;;;24.00;18.00;;;;;22.84;50.79;102422.06;5089335;27;46423;-60
2022/03/25 00:33:05;;;;;;;;;22.33;17.67;;;;;22.84;50.57;102414.88;5096922;27;45274;-59
2022/03/25 00:35:31;;;;;;;;;16.33;16.33;;;;;22.82;50.81;102405.94;5095966;27;45558;-59
2022/03/25 00:37:59;;;;;;;;;20.67;17.67;;;;;22.83;50.90;102418.47;5096596;27;45593;-59
2022/03/25 00:40:25;;;;;;;;;14.67;14.67;;;;;22.82;50.93;102414.00;5093975;27;46585;-59
2022/03/25 00:42:51;;;;;;;;;22.67;18.33;;;;;22.82;50.70;102422.09;5095894;27;47563;-60
2022/03/25 00:45:16;;;;;;;;;18.33;15.33;;;;;22.82;50.74;102414.00;5096415;27;45225;-60
2022/03/25 00:47:42;;;;;;;;;18.67;17.00;;;;;22.81;51.04;102420.31;5096487;27;46115;-59
2022/03/25 00:50:08;;;;;;;;;19.67;17.33;;;;;22.79;50.83;102413.16;5094952;27;46443;-60
2022/03/25 00:52:34;;;;;;;;;19.33;16.00;;;;;22.82;50.95;102413.13;5096725;27;45603;-59
2022/03/25 00:54:59;;;;;;;;;18.67;13.67;;;;;22.80;50.80;102410.47;5099111;27;45515;-59
2022/03/25 00:57:25;;;;;;;;;16.67;15.33;;;;;22.80;50.97;102409.53;5100254;27;45533;-59
2022/03/25 00:59:50;;;;;;;;;20.00;19.33;;;;;22.80;50.67;102406.84;5092135;27;46718;-59
2022/03/25 01:02:16;;;;;;;;;20.33;17.00;;;;;22.79;51.11;102411.34;5100037;27;46968;-63
2022/03/25 01:04:41;;;;;;;;;18.33;16.67;;;;;22.78;50.88;102404.19;5099601;27;45516;-59
2022/03/25 01:07:07;;;;;;;;;16.33;16.00;;;;;22.79;50.82;102410.47;5099619;27;50282;-61
2022/03/25 01:09:32;;;;;;;;;21.00;19.33;;;;;22.79;50.77;102413.16;5095493;27;46693;-59
2022/03/25 01:11:58;;;;;;;;;16.67;16.67;;;;;22.79;50.85;102410.47;5099529;27;53592;-59
2022/03/25 01:14:23;;;;;;;;;19.67;19.00;;;;;22.79;50.83;102410.47;5094502;27;45303;-59
2022/03/25 01:16:49;;;;;;;;;20.00;14.67;;;;;22.78;50.66;102414.97;5098618;27;47481;-60
2022/03/25 01:19:14;;;;;;;;;19.33;17.67;;;;;22.78;50.70;102406.88;5099806;27;45590;-60
2022/03/25 01:21:40;;;;;;;;;17.33;15.33;;;;;22.78;50.56;102406.00;5098466;27;45656;-61
2022/03/25 01:24:06;;;;;;;;;19.00;17.67;;;;;22.77;50.91;102405.09;5093703;27;45310;-60
2022/03/25 01:26:31;;;;;;;;;17.33;15.33;;;;;22.78;50.69;102403.31;5099916;27;45332;-61
2022/03/25 01:28:57;;;;;;;;;20.00;17.33;;;;;22.77;50.91;102397.03;5098702;27;57284;-60
2022/03/25 01:31:22;;;;;;;;;20.33;16.67;;;;;22.72;50.87;102389.00;5075722;27;45292;-61
2022/03/25 01:33:47;;;;;;;;;18.33;15.67;;;;;22.75;51.11;102390.78;5099384;27;45325;-61
2022/03/25 01:36:13;;;;;;;;;20.67;17.33;;;;;22.75;50.76;102388.97;5092584;27;45493;-60
2022/03/25 01:38:39;;;;;;;;;16.00;15.00;;;;;22.75;50.71;102382.72;5097189;27;46484;-60
2022/03/25 01:41:04;;;;;;;;;18.00;18.00;;;;;22.69;50.51;102382.78;5098207;27;45303;-60
2022/03/25 01:43:30;;;;;;;;;19.33;17.00;;;;;22.74;50.90;102391.66;5094734;27;45586;-60
2022/03/25 01:45:55;;;;;;;;;17.33;17.33;;;;;22.74;50.92;102384.50;5096421;27;45339;-62
2022/03/25 01:48:21;;;;;;;;;19.33;17.00;;;;;22.74;50.88;102386.28;5099043;27;46099;-60
2022/03/25 01:50:47;;;;;;;;;21.00;18.00;;;;;22.72;50.56;102385.44;5078669;27;45318;-61
2022/03/25 01:53:23;;;;;;;;;15.67;15.00;;;;;22.74;50.51;102387.22;5094165;27;47111;-61
2022/03/25 01:55:50;;;;;;;;;19.33;18.00;;;;;22.74;50.43;102380.91;5077585;27;45454;-61
2022/03/25 01:58:15;;;;;;;;;21.33;19.33;;;;;22.72;51.01;102377.34;5092320;27;46498;-62
2022/03/25 02:00:41;;;;;;;;;16.67;14.00;;;;;22.72;50.83;102382.75;5099126;27;45453;-61
2022/03/25 02:03:06;;;;;;;;;19.00;19.00;;;;;22.73;50.41;102380.00;5095499;27;51574;-60
2022/03/25 02:05:32;;;;;;;;;20.00;18.00;;;;;22.74;51.16;102380.91;5098023;27;45475;-62
2022/03/25 02:07:57;;;;;;;;;18.33;16.67;;;;;22.74;50.94;102379.13;5098773;27;64252;-60
2022/03/25 02:10:23;;;;;;;;;17.67;17.00;;;;;22.73;50.70;102379.13;5098332;27;45221;-61
2022/03/25 02:12:48;;;;;;;;;19.33;15.33;;;;;22.74;50.69;102380.91;5096074;27;45347;-61
2022/03/25 02:15:14;;;;;;;;;15.67;15.33;;;;;22.74;51.20;102387.22;5097359;27;45472;-61
2022/03/25 02:17:39;;;;;;;;;25.00;19.67;;;;;22.76;50.51;102376.41;5098586;27;46527;-60
2022/03/25 02:20:08;;;;;;;;;17.67;16.33;;;;;22.73;50.87;102382.72;5095408;27;45269;-60
2022/03/25 02:22:37;;;;;;;;;20.33;16.33;;;;;22.73;50.60;102382.72;5098606;27;45291;-61
2022/03/25 02:25:06;;;;;;;;;19.00;16.00;;;;;22.74;50.59;102383.59;5093317;27;45324;-62
2022/03/25 02:27:31;;;;;;;;;18.00;17.00;;;;;22.74;50.82;102379.13;5062853;27;45519;-62
2022/03/25 02:29:57;;;;;;;;;18.67;16.33;;;;;22.69;50.88;102366.63;5080210;27;58682;-61
2022/03/25 02:32:22;;;;;;;;;18.67;14.67;;;;;22.75;50.84;102382.72;5098486;27;45632;-61
2022/03/25 02:34:47;;;;;;;;;23.00;19.67;;;;;22.74;50.52;102376.44;5097852;27;52113;-61
2022/03/25 02:37:13;;;;;;;;;21.67;18.00;;;;;22.74;50.57;102379.13;5094296;27;57011;-61
2022/03/25 02:39:38;;;;;;;;;18.67;17.00;;;;;22.75;50.77;102382.72;5097105;27;56636;-62
2022/03/25 02:42:04;;;;;;;;;17.67;16.67;;;;;22.74;51.09;102373.75;5097729;27;53173;-61
2022/03/25 02:44:29;;;;;;;;;21.33;17.67;;;;;22.75;50.34;102385.41;5098374;27;45616;-61
2022/03/25 02:46:55;;;;;;;;;20.00;17.33;;;;;22.75;50.70;102382.72;5087393;27;45947;-60
2022/03/25 02:49:21;;;;;;;;;17.33;16.33;;;;;22.73;50.78;102380.00;5098041;27;45477;-62
2022/03/25 02:51:46;;;;;;;;;21.33;18.33;;;;;22.73;50.79;102368.34;5089847;27;45347;-61
2022/03/25 02:54:12;;;;;;;;;21.00;19.00;;;;;22.74;50.70;102373.75;5092832;27;45548;-62
2022/03/25 02:56:37;;;;;;;;;22.00;18.67;;;;;22.75;50.72;102386.28;5096674;27;46736;-60
2022/03/25 02:59:02;;;;;;;;;21.67;17.67;;;;;22.74;51.05;102376.44;5097301;27;58772;-61
2022/03/25 03:01:28;;;;;;;;;14.00;14.00;;;;;22.79;50.42;102386.22;5079023;27;58443;-60
2022/03/25 03:03:54;;;;;;;;;19.00;17.67;;;;;22.81;50.69;102379.03;5098146;27;45226;-62
2022/03/25 03:06:19;;;;;;;;;17.33;17.00;;;;;22.81;50.97;102382.59;5097377;27;46673;-61
2022/03/25 03:08:45;;;;;;;;;22.00;19.33;;;;;22.84;50.83;102384.34;5098272;27;45304;-61
2022/03/25 03:11:11;;;;;;;;;18.67;18.67;;;;;22.84;50.18;102387.94;5097855;27;45369;-62
2022/03/25 03:13:36;;;;;;;;;18.33;18.33;;;;;22.85;50.58;102387.03;5098475;27;45675;-60
2022/03/25 03:16:02;;;;;;;;;25.33;20.00;;;;;22.84;50.72;102376.28;5093613;27;47617;-60
2022/03/25 03:18:27;;;;;;;;;19.00;16.33;;;;;22.85;50.70;102384.34;5097368;27;45295;-62
2022/03/25 03:20:53;;;;;;;;;20.33;18.33;;;;;22.87;50.54;102385.19;5098123;27;45432;-62
2022/03/25 03:23:19;;;;;;;;;19.00;18.00;;;;;22.86;50.88;102382.53;5097155;27;45596;-60
2022/03/25 03:25:44;;;;;;;;;14.00;13.00;;;;;22.85;50.65;102378.03;5097230;27;59851;-60
2022/03/25 03:28:10;;;;;;;;;26.67;21.33;;;;;22.85;50.36;102378.03;5097043;27;45472;-61
2022/03/25 03:30:35;;;;;;;;;22.00;18.00;;;;;22.84;50.42;102378.97;5097035;27;56887;-60
2022/03/25 03:33:04;;;;;;;;;22.00;19.00;;;;;22.84;50.44;102382.53;5098030;27;45311;-61
2022/03/25 03:35:30;;;;;;;;;17.00;14.67;;;;;22.85;50.41;102387.03;5089114;27;46737;-60
2022/03/25 03:37:56;;;;;;;;;17.00;17.00;;;;;22.84;50.59;102374.47;5097688;27;45821;-60
2022/03/25 03:40:21;;;;;;;;;22.33;18.67;;;;;22.84;50.94;102371.78;5093982;27;45315;-61
2022/03/25 03:42:46;;;;;;;;;19.33;16.33;;;;;22.84;50.58;102371.78;5097133;27;45627;-60
2022/03/25 03:45:13;;;;;;;;;18.00;16.33;;;;;22.83;50.54;102370.00;5096860;27;61322;-61
2022/03/25 03:47:39;;;;;;;;;23.00;19.33;;;;;22.83;50.77;102369.13;5097247;27;45619;-60
2022/03/25 03:50:05;;;;;;;;;19.67;18.33;;;;;22.79;50.65;102365.56;5077568;27;45416;-61
2022/03/25 03:52:31;;;;;;;;;22.00;17.33;;;;;22.81;50.95;102369.16;5096378;27;45875;-61
2022/03/25 03:54:57;;;;;;;;;19.67;16.00;;;;;22.80;50.34;102375.44;5096755;27;46742;-61
2022/03/25 03:57:23;;;;;;;;;21.00;16.67;;;;;22.80;50.44;102370.06;5097526;27;45291;-61
2022/03/25 03:59:48;;;;;;;;;19.00;16.67;;;;;22.79;50.94;102376.34;5097249;27;45512;-61
2022/03/25 04:02:14;;;;;;;;;18.33;18.00;;;;;22.79;50.94;102376.34;5092211;27;45549;-61
2022/03/25 04:04:39;;;;;;;;;17.33;16.00;;;;;22.78;50.70;102371.88;5093732;27;45972;-61
2022/03/25 04:07:05;;;;;;;;;20.00;18.33;;;;;22.77;50.77;102375.47;5096326;27;45464;-61
2022/03/25 04:09:30;;;;;;;;;17.00;17.00;;;;;22.77;50.27;102377.28;5075455;27;55776;-60
2022/03/25 04:11:55;;;;;;;;;24.33;17.33;;;;;22.77;50.70;102374.59;5075885;27;45517;-61
2022/03/25 04:14:21;;;;;;;;;19.33;16.67;;;;;22.74;50.83;102371.06;5089103;27;62038;-61
2022/03/25 04:16:46;;;;;;;;;20.00;16.33;;;;;22.75;50.76;102377.31;5072331;27;45861;-61
2022/03/25 04:19:12;;;;;;;;;18.67;16.00;;;;;22.74;50.71;102380.91;5078802;27;45358;-60
2022/03/25 04:21:38;;;;;;;;;18.67;15.33;;;;;22.72;50.80;102375.53;5096936;27;45401;-61
2022/03/25 04:24:04;;;;;;;;;21.67;16.67;;;;;22.73;50.74;102374.63;5096168;27;46438;-61
2022/03/25 04:26:29;;;;;;;;;15.33;15.33;;;;;22.73;50.73;102379.13;5091347;27;45308;-61
2022/03/25 04:28:54;;;;;;;;;21.67;18.67;;;;;22.70;50.88;102376.50;5095767;27;45913;-61
2022/03/25 04:31:20;;;;;;;;;21.00;18.33;;;;;22.72;50.77;102382.75;5089068;27;45534;-60
2022/03/25 04:33:45;;;;;;;;;21.00;17.33;;;;;22.70;50.67;102380.06;5096692;27;46412;-60
2022/03/25 04:36:11;;;;;;;;;16.67;15.33;;;;;22.70;50.74;102385.47;5095581;27;61364;-60
2022/03/25 04:38:36;;;;;;;;;18.67;16.67;;;;;22.69;50.83;102389.06;5092632;27;45252;-60
2022/03/25 04:41:02;;;;;;;;;21.67;17.67;;;;;22.69;50.95;102388.16;5096645;27;45399;-62
2022/03/25 04:43:28;;;;;;;;;21.33;19.67;;;;;22.66;50.70;102388.22;5089925;27;46352;-60
2022/03/25 04:45:54;;;;;;;;;16.33;15.33;;;;;;;;5096702;27;45359;-62
2022/03/25 04:48:19;;;;;;;;;17.00;16.00;;;;;22.68;50.88;102394.47;5078081;27;45442;-60
2022/03/25 04:50:45;;;;;;;;;15.67;15.67;;;;;22.68;50.98;102397.16;5094953;27;46866;-62
2022/03/25 04:53:10;;;;;;;;;16.00;16.00;;;;;22.65;51.01;102394.53;5095065;27;46183;-61
2022/03/25 04:55:36;;;;;;;;;20.00;17.00;;;;;22.67;50.50;102406.16;5087716;27;45275;-61
2022/03/25 04:58:01;;;;;;;;;20.67;17.33;;;;;22.67;51.09;102403.47;5095475;27;55301;-61
2022/03/25 05:00:26;;;;;;;;;22.00;18.67;;;;;;;;5096971;27;45439;-60
2022/03/25 05:02:52;;;;;;;;;21.00;18.33;;;;;22.66;50.62;102407.06;5095647;27;59604;-61
2022/03/25 05:05:17;;;;;;;;;20.67;17.67;;;;;22.65;50.56;102402.59;5094745;27;45484;-60
2022/03/25 05:07:43;;;;;;;;;17.33;16.00;;;;;;;;5090774;27;45255;-60
2022/03/25 05:10:08;;;;;;;;;20.00;16.67;;;;;22.65;50.78;102408.00;5096473;27;45285;-61
2022/03/25 05:12:34;;;;;;;;;19.00;17.00;;;;;22.66;50.76;102409.75;5095826;27;54332;-62
2022/03/25 05:15:00;;;;;;;;;18.33;15.67;;;;;22.64;50.44;102406.22;5095255;27;58038;-61
2022/03/25 05:17:26;;;;;;;;;18.33;17.67;;;;;22.64;50.58;102415.19;5096302;27;45472;-61
2022/03/25 05:19:51;;;;;;;;;17.00;16.00;;;;;22.65;50.94;102416.06;5095916;27;45418;-60
2022/03/25 05:22:16;;;;;;;;;18.67;17.67;;;;;22.65;50.88;102416.94;5095219;27;61515;-62
2022/03/25 05:24:42;;;;;;;;;17.33;17.33;;;;;22.65;50.47;102414.25;5088372;27;45920;-61
2022/03/25 05:27:07;;;;;;;;;16.00;16.00;;;;;22.63;50.69;102405.28;5094942;27;55858;-62
2022/03/25 05:29:32;;;;;;;;;23.00;18.33;;;;;22.65;50.80;102422.34;5091033;27;45460;-60
2022/03/25 05:31:58;;;;;;;;;17.00;14.67;;;;;22.66;50.75;102423.22;5084621;27;60991;-63
2022/03/25 05:34:23;;;;;;;;;21.67;20.00;;;;;22.65;50.94;102408.00;5093004;27;45712;-60
2022/03/25 05:36:49;;;;;;;;;18.67;15.33;;;;;22.65;51.00;102416.94;5089767;27;54312;-60
2022/03/25 05:39:15;;;;;;;;;23.00;20.67;;;;;;;;5097274;27;45459;-62
2022/03/25 05:41:41;;;;;;;;;22.33;18.67;;;;;22.67;50.81;102423.19;5098656;27;47827;-61
2022/03/25 05:44:06;;;;;;;;;22.00;21.00;;;;;22.65;50.62;102408.88;5092382;27;45472;-61
2022/03/25 05:46:34;;;;;;;;;20.00;18.33;;;;;22.69;50.69;102423.16;5099358;27;45358;-61
2022/03/25 05:48:59;;;;;;;;;26.67;20.00;;;;;22.69;50.62;102416.00;5099133;27;45600;-61
2022/03/25 05:51:25;;;;;;;;;18.33;18.33;;;;;22.70;50.66;102416.88;5090654;27;46276;-61
2022/03/25 05:53:50;;;;;;;;;20.33;19.33;;;;;22.69;50.60;102418.69;5099086;27;55419;-62
2022/03/25 05:56:16;;;;;;;;;24.67;21.00;;;;;22.71;50.92;102424.06;5099097;27;45212;-60
2022/03/25 05:58:44;;;;;;;;;19.33;18.67;;;;;22.69;50.88;102423.16;5098925;27;52093;-60
2022/03/25 06:01:09;;;;;;;;;25.33;20.00;;;;;22.72;50.53;102431.22;5096924;27;45961;-60
2022/03/25 06:03:35;;;;;;;;;21.00;18.00;;;;;22.72;50.19;102436.59;5080256;27;45395;-60
2022/03/25 06:06:02;;;;;;;;;16.00;16.00;;;;;22.72;50.86;102431.22;5096002;27;45470;-61
2022/03/25 06:08:27;;;;;;;;;23.67;20.33;;;;;22.72;50.68;102436.59;5097125;27;45461;-61
2022/03/25 06:10:53;;;;;;;;;20.33;19.33;;;;;22.68;50.82;102434.84;5097704;27;47602;-61
2022/03/25 06:13:19;;;;;;;;;22.00;19.33;;;;;22.71;50.87;102445.59;5092068;27;45354;-60
2022/03/25 06:15:44;;;;;;;;;21.33;20.33;;;;;22.70;50.59;102442.00;5096730;27;45410;-61
2022/03/25 06:18:10;;;;;;;;;19.33;18.00;;;;;22.69;50.88;102442.00;5073742;27;57221;-62
2022/03/25 06:20:35;;;;;;;;;20.33;18.33;;;;;22.70;50.79;102446.50;5062522;27;64590;-61
2022/03/25 06:23:00;;;;;;;;;21.33;20.00;;;;;22.71;50.34;102448.28;5095410;27;45363;-60
2022/03/25 06:25:26;;;;;;;;;19.67;19.67;;;;;22.70;50.71;102447.41;5077304;27;45653;-60
2022/03/25 06:27:56;;;;;;;;;22.67;19.33;;;;;22.74;50.08;102454.53;5091719;27;45453;-60
2022/03/25 06:30:23;;;;;;;;;20.67;19.00;;;;;22.74;50.37;102454.53;5089393;27;47557;-60
2022/03/25 06:32:48;;;;;;;;;22.33;21.00;;;;;22.78;50.39;102460.75;5088031;27;45495;-61
2022/03/25 06:35:14;;;;;;;;;21.33;20.00;;;;;22.79;50.09;102451.75;5097481;27;45376;-64
2022/03/25 06:37:39;;;;;;;;;45.50;37.00;;;;;22.68;48.99;102451.91;5090845;27;45526;-60
2022/03/25 06:40:08;;;;;;;;;47.75;39.00;;;;;22.36;47.43;102455.00;5090716;27;47655;-60
2022/03/25 06:42:37;;;;;;;;;48.25;39.25;;;;;21.92;46.40;102456.38;5073156;27;45525;-59
2022/03/25 06:45:07;;;;;;;;;52.75;40.75;;;;;21.50;45.37;102464.81;5093762;27;45469;-61
2022/03/25 06:47:33;;;;;;;;;54.75;44.00;;;;;21.04;44.73;102457.06;5094574;27;45700;-59
2022/03/25 06:49:58;;;;;;;;;54.00;41.75;;;;;20.66;45.26;102468.91;5094650;27;45672;-61
2022/03/25 06:52:24;;;;;;;;;48.25;38.75;;;;;20.30;44.84;102475.31;5096307;27;45402;-60
2022/03/25 06:54:50;;;;;;;;;59.25;42.75;;;;;19.95;44.59;102480.72;5089953;27;45373;-59
2022/03/25 06:57:16;;;;;;;;;48.25;39.00;;;;;19.65;44.41;102474.50;5094119;27;45472;-60
2022/03/25 06:59:44;;;;;;;;;59.00;44.75;;;;;19.36;44.70;102482.50;5093663;27;46815;-60
2022/03/25 07:02:10;;;;;;;;;53.00;42.00;;;;;19.03;44.86;102483.34;5093186;27;45687;-59
2022/03/25 07:04:36;;;;;;;;;48.50;40.75;;;;;18.87;46.73;102482.41;5088419;27;45535;-61
2022/03/25 07:07:02;;;;;;;;;48.00;38.75;;;;;18.97;47.19;102484.22;5094541;27;45535;-60
2022/03/25 07:09:29;;;;;;;;;45.00;37.75;;;;;19.14;47.96;102484.25;5078901;27;46952;-60
2022/03/25 07:11:55;;;;;;;;;46.75;34.50;;;;;19.32;48.07;102486.94;5094077;27;45334;-61
2022/03/25 07:14:20;;;;;;;;;41.00;35.67;;;;;19.50;48.88;102491.44;5097378;27;46794;-61
2022/03/25 07:16:45;;;;;;;;;39.67;32.67;;;;;19.66;48.75;102487.03;5093859;27;45423;-61
2022/03/25 07:19:11;;;;;;;;;41.00;34.00;;;;;19.83;48.69;102484.34;5073606;27;47133;-60
2022/03/25 07:21:37;;;;;;;;;39.67;32.00;;;;;19.98;48.53;102494.16;5096876;27;56898;-61
2022/03/25 07:24:02;;;;;;;;;32.00;31.33;;;;;20.10;49.08;102489.66;5097805;27;45419;-60
2022/03/25 07:26:28;;;;;;;;;27.00;24.33;;;;;20.21;48.65;102486.94;5097855;27;46009;-61
2022/03/25 07:28:53;;;;;;;;;29.67;27.67;;;;;20.34;49.36;102496.72;5097067;27;62636;-61
2022/03/25 07:31:18;;;;;;;;;34.00;29.33;;;;;20.45;48.80;102501.16;5092247;27;52959;-61
2022/03/25 07:33:44;;;;;;;;;31.67;27.67;;;;;20.54;48.94;102494.00;5096070;27;53769;-60
2022/03/25 07:36:09;;;;;;;;;34.33;31.00;;;;;20.64;49.38;102497.56;5094127;27;53723;-61
2022/03/25 07:38:36;;;;;;;;;34.33;30.00;;;;;20.74;49.42;102506.47;5095795;27;45944;-61
2022/03/25 07:41:01;;;;;;;;;28.67;26.33;;;;;20.80;49.55;102498.38;5107889;22;47718;-60
2022/03/25 07:43:27;;;;;;;;;32.00;25.33;;;;;20.89;49.53;102507.28;5094271;27;47209;-60
2022/03/25 07:45:52;;;;;;;;;31.67;26.67;;;;;20.96;49.43;102508.16;5068353;28;45476;-60
2022/03/25 07:48:18;;;;;;;;;30.33;28.33;;;;;21.02;49.55;102508.09;5078534;27;59245;-60
2022/03/25 07:50:44;;;;;;;;;26.67;23.00;;;;;21.08;49.21;102505.38;5096774;27;45309;-60
2022/03/25 07:53:09;;;;;;;;;27.00;20.33;;;;;21.14;49.15;102509.81;5095397;27;45475;-61
2022/03/25 07:55:35;;;;;;;;;23.67;20.67;;;;;21.20;49.09;102507.13;5097373;27;55913;-59
2022/03/25 07:58:00;;;;;;;;;26.00;21.67;;;;;21.23;49.55;102515.16;5091490;27;47484;-60
2022/03/25 08:00:25;;;;;;;;;25.00;23.67;;;;;21.27;49.82;102511.53;5076065;28;45369;-61
2022/03/25 08:02:52;;;;;;;;;27.67;19.33;;;;;21.34;49.85;102513.31;5076703;27;45142;-60
2022/03/25 08:05:18;;;;;;;;;23.67;22.67;;;;;21.38;49.81;102515.09;5078066;28;45391;-61
2022/03/25 08:07:52;;;;;;;;;29.00;23.00;;;;;21.44;49.71;102519.53;5076895;28;46528;-61
2022/03/25 08:10:23;;;;;;;;;24.00;23.33;;;;;21.45;49.91;102514.13;5081664;27;45506;-60
2022/03/25 08:12:49;;;;;;;;;26.33;22.33;;;;;21.52;49.89;102512.31;5097276;27;45798;-60
2022/03/25 08:15:14;;;;;;;;;28.33;25.33;;;;;21.54;50.13;102509.59;5089084;27;45596;-61
2022/03/25 08:17:55;;;;;;;;;22.33;19.67;;;;;21.59;49.68;102516.72;5097083;27;46032;-60
2022/03/25 08:20:28;;;;;;;;;25.33;23.67;;;;;21.61;49.35;102505.94;5071066;27;45538;-60
2022/03/25 08:22:55;;;;;;;;;28.00;19.33;;;;;21.65;49.46;102516.66;5097272;27;45438;-59
2022/03/25 08:28:04;;;;;;;;;19.67;19.67;;;;;21.71;50.10;102513.94;5093281;27;45270;-60
2022/03/25 08:30:30;;;;;;;;;25.67;21.67;;;;;21.75;49.44;102519.28;5097164;27;45445;-60
2022/03/25 08:32:57;;;;;;;;;24.33;21.67;;;;;21.76;49.77;102513.88;5092836;27;45334;-60
2022/03/25 08:35:26;;;;;;;;;25.00;19.00;;;;;21.80;49.49;102515.66;5078097;27;47242;-60
2022/03/25 08:37:51;;;;;;;;;28.33;20.00;;;;;21.83;50.12;102518.28;5096800;27;47473;-59
2022/03/25 08:40:16;;;;;;;;;19.67;19.67;;;;;21.85;49.90;102521.88;5076295;27;45240;-61
2022/03/25 08:42:42;;;;;;;;;25.00;22.67;;;;;21.87;49.92;102512.00;5096314;27;45521;-60
2022/03/25 08:45:07;;;;;;;;;20.00;18.67;;;;;21.83;49.47;102502.16;5095917;27;54492;-61
2022/03/25 08:47:33;;;;;;;;;17.67;16.00;;;;;21.92;49.70;102517.34;5095220;27;47318;-61
2022/03/25 08:50:00;;;;;;;;;19.67;18.33;;;;;21.93;49.70;102514.63;5092898;27;45500;-60
2022/03/25 08:52:25;;;;;;;;;23.67;20.00;;;;;21.95;50.22;102517.31;5094843;27;45526;-60
2022/03/25 08:54:51;;;;;;;;;19.00;18.33;;;;;21.95;49.85;102506.56;5091851;27;45366;-60
2022/03/25 08:57:17;;;;;;;;;16.67;16.67;;;;;21.97;49.63;102513.69;5096079;27;46721;-60
2022/03/25 08:59:42;;;;;;;;;21.67;17.33;;;;;22.01;50.25;102521.75;5096298;27;54602;-60
2022/03/25 09:02:08;;;;;;;;;20.00;19.67;;;;;22.02;50.10;102512.75;5094554;27;52268;-60
2022/03/25 09:04:34;;;;;;;;;24.00;19.33;;;;;22.03;49.86;102515.44;5089144;27;45563;-59
2022/03/25 09:07:00;;;;;;;;;19.67;18.00;;;;;22.05;50.29;102512.72;5093121;27;63322;-59
2022/03/25 09:09:25;;;;;;;;;24.00;21.00;;;;;22.06;50.15;102509.16;5096208;27;46621;-60
2022/03/25 09:11:51;;;;;;;;;21.00;18.00;;;;;22.07;49.82;102517.19;5095171;27;55583;-60
2022/03/25 09:14:17;;;;;;;;;21.00;16.67;;;;;22.09;50.10;102517.16;5097578;27;55736;-59
2022/03/25 09:16:43;;;;;;;;;22.00;18.67;;;;;22.06;49.48;102514.53;5094600;27;47480;-60
2022/03/25 09:19:09;;;;;;;;;27.00;21.67;;;;;22.10;49.72;102521.63;5098211;27;45255;-60
2022/03/25 09:21:35;;;;;;;;;21.33;17.33;;;;;22.11;50.07;102516.28;5099839;27;45443;-60
2022/03/25 09:24:00;;;;;;;;;26.67;21.00;;;;;22.10;50.20;102509.09;5091422;27;45347;-60
2022/03/25 09:26:26;;;;;;;;;19.33;19.00;;;;;22.13;49.80;102510.88;5093895;27;47513;-60
2022/03/25 09:28:51;;;;;;;;;23.00;19.67;;;;;22.13;50.28;102510.88;5097475;27;60857;-59
2022/03/25 09:31:16;;;;;;;;;18.67;17.33;;;;;22.14;50.32;102518.06;5093138;27;57525;-61
2022/03/25 09:33:42;;;;;;;;;19.33;18.00;;;;;22.14;50.30;102512.66;5097968;27;45544;-60
2022/03/25 09:36:07;;;;;;;;;24.33;18.33;;;;;22.12;50.40;102507.31;5093019;27;46391;-60
2022/03/25 09:38:33;;;;;;;;;22.00;19.67;;;;;22.15;50.19;102517.13;5099199;27;60045;-61
2022/03/25 09:40:58;;;;;;;;;19.00;16.00;;;;;22.15;50.17;102507.25;5098838;27;53653;-60
2022/03/25 09:43:24;;;;;;;;;19.67;19.67;;;;;22.14;49.70;102513.56;5064681;27;45586;-60
2022/03/25 09:45:49;;;;;;;;;20.33;18.33;;;;;22.14;49.72;102507.28;5099052;27;46491;-60
2022/03/25 09:48:15;;;;;;;;;23.33;18.00;;;;;22.14;50.15;102509.97;5098753;27;54879;-61
2022/03/25 09:50:40;;;;;;;;;16.67;16.67;;;;;22.17;50.32;102513.53;5092245;27;45294;-60
2022/03/25 09:53:06;;;;;;;;;22.67;19.00;;;;;22.18;50.10;102511.75;5097016;27;45351;-60
2022/03/25 09:55:32;;;;;;;;;21.67;17.67;;;;;22.14;49.76;102505.47;5098475;27;47800;-61
2022/03/25 09:57:58;;;;;;;;;22.67;22.00;;;;;22.19;49.83;102506.34;5076360;28;45689;-61
2022/03/25 10:00:23;;;;;;;;;24.00;20.33;;;;;22.19;49.95;102511.72;5095840;27;45948;-60
2022/03/25 10:02:50;;;;;;;;;26.33;20.67;;;;;22.20;50.17;102499.16;5080852;27;45419;-61
2022/03/25 10:05:16;;;;;;;;;21.00;18.67;;;;;22.21;50.52;102503.63;5099287;27;46144;-60
2022/03/25 10:07:52;;;;;;;;;21.00;16.67;;;;;22.22;50.43;102505.41;5098100;27;45683;-60
2022/03/25 10:10:27;;;;;;;;;22.67;19.00;;;;;22.19;49.96;102497.38;5099472;27;45387;-60
2022/03/25 10:13:03;;;;;;;;;26.33;20.33;;;;;22.19;50.22;102495.56;5098890;27;45306;-59
2022/03/25 10:15:32;;;;;;;;;27.33;20.00;;;;;22.22;49.99;102492.84;5091802;27;47136;-60
2022/03/25 10:18:01;;;;;;;;;25.00;20.33;;;;;22.24;49.99;102506.28;5098097;27;45434;-60
2022/03/25 10:20:31;;;;;;;;;20.67;20.67;;;;;22.21;49.89;102499.16;5099369;27;45475;-60
2022/03/25 10:23:18;;;;;;;;;24.00;22.67;;;;;22.23;50.02;102496.44;5080929;27;45325;-61
2022/03/25 10:25:51;;;;;;;;;25.67;20.67;;;;;22.23;49.90;102502.72;5097463;27;47474;-60
2022/03/25 10:28:36;;;;;;;;;22.00;19.33;;;;;22.24;50.01;102492.81;5093475;27;45235;-60
2022/03/25 10:31:17;;;;;;;;;19.00;17.33;;;;;22.25;50.46;102497.28;5095317;27;45613;-60
2022/03/25 10:33:45;;;;;;;;;23.33;22.00;;;;;22.23;50.13;102491.06;5099183;27;45407;-60
2022/03/25 10:36:14;;;;;;;;;23.00;20.00;;;;;22.23;50.09;102496.44;5090555;27;46543;-60
2022/03/25 10:38:42;;;;;;;;;19.00;16.33;;;;;22.26;50.59;102499.06;5095356;27;45531;-60
2022/03/25 10:41:08;;;;;;;;;24.33;20.33;;;;;22.25;50.49;102493.72;5098369;27;45549;-61
2022/03/25 10:43:34;;;;;;;;;25.00;21.33;;;;;22.25;50.56;102488.34;5093274;27;45326;-60
2022/03/25 10:45:59;;;;;;;;;23.33;22.00;;;;;22.24;50.35;102482.06;5096307;27;47076;-61
2022/03/25 10:48:24;;;;;;;;;23.67;21.00;;;;;22.27;50.12;102487.44;5096875;27;61942;-60
2022/03/25 10:51:04;;;;;;;;;26.67;23.00;;;;;22.27;50.29;102486.53;5094654;27;55260;-60
2022/03/25 10:53:31;;;;;;;;;25.67;24.33;;;;;22.28;50.27;102488.31;5092133;27;45536;-61
2022/03/25 10:56:00;;;;;;;;;20.00;20.00;;;;;22.28;50.36;102489.19;5090262;27;46744;-60
2022/03/25 10:58:25;;;;;;;;;25.33;21.67;;;;;22.26;49.93;102482.94;5098470;27;45381;-61
2022/03/25 11:00:51;;;;;;;;;23.00;21.33;;;;;22.28;49.70;102485.63;5094868;27;45596;-60
2022/03/25 11:03:17;;;;;;;;;27.00;22.00;;;;;22.29;50.03;102488.28;5098696;27;45204;-60
2022/03/25 11:05:43;;;;;;;;;25.00;19.67;;;;;22.29;50.50;102490.97;5092313;27;47404;-60
2022/03/25 11:08:08;;;;;;;;;22.67;19.67;;;;;22.28;50.27;102489.19;5098147;27;45498;-60
2022/03/25 11:10:34;;;;;;;;;21.00;19.33;;;;;22.31;50.03;102483.75;5098593;27;45337;-61